Time;durP1;ratioP1;P1;durP2;ratioP2;P2;SDS_P1;SDS_P2;PMS_P1;PMS_P2;Temp;Humidity;BMP_temperature;BMP_pressure;BME280_temperature;BME280_humidity;BME280_pressure;Samples;Min_cycle;Max_cycle;Signal;HPM_P1;HPM_P2
2024/03/02 00:02:33;;;;;;;;;;;;;;;18.14;42.25;98273.75;10203492;28;882;-72
2024/03/02 00:07:29;;;;;;;;;;;;;;;18.13;42.38;98277.34;10203338;28;1894;-72
2024/03/02 00:12:25;;;;;;;;;;;;;;;18.12;42.29;98270.38;10202672;28;834;-72
2024/03/02 00:17:21;;;;;;;;;;;;;;;18.11;42.47;98279.25;10203668;28;806;-71
2024/03/02 00:22:17;;;;;;;;;;;;;;;18.11;42.44;98275.78;10202978;28;910;-72
2024/03/02 00:27:13;;;;;;;;;;;;;;;18.10;42.50;98281.97;10202832;28;1890;-72
2024/03/02 00:32:09;;;;;;;;;;;;;;;18.09;42.38;98281.13;10202813;28;1100;-72
2024/03/02 00:37:05;;;;;;;;;;;;;;;18.07;42.46;98293.56;10203101;28;838;-72
2024/03/02 00:42:01;;;;;;;;;;;;;;;18.07;42.42;98293.56;10203009;28;898;-71
2024/03/02 00:46:56;;;;;;;;;;;;;;;18.06;42.46;98294.53;10202771;28;1965;-72
2024/03/02 00:51:52;;;;;;;;;;;;;;;18.06;42.55;98285.78;10201491;28;921;-72
2024/03/02 00:56:48;;;;;;;;;;;;;;;18.05;42.30;98282.31;10201921;28;1386;-72
2024/03/02 01:01:44;;;;;;;;;;;;;;;18.05;42.50;98278.81;10200481;28;833;-72
2024/03/02 01:06:40;;;;;;;;;;;;;;;18.03;42.43;98276.28;10201611;28;1894;-72
2024/03/02 01:11:36;;;;;;;;;;;;;;;18.02;42.51;98268.47;10202444;28;863;-72
2024/03/02 01:16:32;;;;;;;;;;;;;;;18.01;42.37;98265.00;10201293;28;790;-72
2024/03/02 01:21:28;;;;;;;;;;;;;;;18.01;42.47;98262.34;10201882;28;877;-71
2024/03/02 01:26:24;;;;;;;;;;;;;;;18.01;42.35;98256.25;10201908;28;1887;-72
2024/03/02 01:31:20;;;;;;;;;;;;;;;18.00;42.45;98249.28;10200340;28;1373;-71
2024/03/02 01:36:15;;;;;;;;;;;;;;;17.98;42.54;98238.00;10201287;28;842;-72
2024/03/02 01:41:11;;;;;;;;;;;;;;;17.96;42.33;98235.47;10199961;28;939;-72
2024/03/02 01:46:07;;;;;;;;;;;;;;;17.96;42.39;98233.66;10199677;28;1906;-71
2024/03/02 01:51:05;;;;;;;;;;;;;;;17.95;42.42;98231.16;10200189;28;790;-72
2024/03/02 01:56:01;;;;;;;;;;;;;;;17.95;42.34;98236.44;10199966;28;889;-72
2024/03/02 02:00:57;;;;;;;;;;;;;;;17.92;42.24;98221.66;10200114;28;865;-72
2024/03/02 02:10:59;;;;;;;;;;;;;;;17.92;42.44;98221.66;10263359;22;1636;-71
2024/03/02 02:15:54;;;;;;;;;;;;;;;17.92;42.42;98207.59;10245161;28;835;-71
2024/03/02 02:20:50;;;;;;;;;;;;;;;17.90;42.40;98210.38;10245246;28;823;-71
2024/03/02 02:25:46;;;;;;;;;;;;;;;17.90;42.56;98209.53;10245065;28;1902;-72
2024/03/02 02:30:42;;;;;;;;;;;;;;;17.88;42.38;98214.91;10245602;28;867;-71
2024/03/02 02:35:38;;;;;;;;;;;;;;;17.88;42.37;98204.34;10245361;28;882;-71
2024/03/02 02:40:34;;;;;;;;;;;;;;;17.87;42.46;98212.38;10245172;28;973;-71
2024/03/02 02:45:30;;;;;;;;;;;;;;;17.87;42.46;98204.47;10244452;28;1907;-71
2024/03/02 02:50:26;;;;;;;;;;;;;;;17.86;42.42;98205.41;10244912;28;918;-71
2024/03/02 02:55:22;;;;;;;;;;;;;;;17.85;42.43;98196.66;10245055;28;958;-71
2024/03/02 03:00:19;;;;;;;;;;;;;;;17.84;42.41;98186.22;10244780;28;969;-71
2024/03/02 03:05:15;;;;;;;;;;;;;;;17.84;42.49;98187.06;10243977;28;1961;-71
2024/03/02 03:10:11;;;;;;;;;;;;;;;17.84;42.32;98188.84;10244109;28;1200;-72
2024/03/02 03:15:08;;;;;;;;;;;;;;;17.82;42.38;98199.50;10243821;28;792;-71
2024/03/02 03:20:04;;;;;;;;;;;;;;;17.81;42.45;98197.81;10244328;28;893;-71
2024/03/02 03:25:00;;;;;;;;;;;;;;;17.81;42.48;98199.59;10244178;28;952;-71
2024/03/02 03:29:56;;;;;;;;;;;;;;;17.81;42.50;98196.97;10251755;28;1910;-71
2024/03/02 03:34:52;;;;;;;;;;;;;;;17.80;42.50;98190.00;10252252;28;883;-72
2024/03/02 03:39:48;;;;;;;;;;;;;;;17.80;42.72;98193.50;10251319;28;784;-72
2024/03/02 03:44:43;;;;;;;;;;;;;;;17.77;42.50;98196.31;10251783;28;946;-71
2024/03/02 03:49:39;;;;;;;;;;;;;;;17.78;42.47;98197.16;10250362;28;1959;-72
2024/03/02 03:54:37;;;;;;;;;;;;;;;17.77;42.60;98198.94;10250888;28;941;-72
2024/03/02 03:59:33;;;;;;;;;;;;;;;17.76;42.41;98197.25;10250612;28;830;-71
2024/03/02 04:04:28;;;;;;;;;;;;;;;17.74;42.49;98210.53;10251568;28;843;-71
2024/03/02 04:09:25;;;;;;;;;;;;;;;17.74;42.54;98207.91;10249907;28;1949;-71
2024/03/02 04:14:21;;;;;;;;;;;;;;;17.73;42.56;98206.19;10250123;28;882;-72
2024/03/02 04:19:17;;;;;;;;;;;;;;;17.73;42.60;98213.25;10232286;28;1335;-71
2024/03/02 04:24:13;;;;;;;;;;;;;;;17.73;42.57;98213.25;10249815;28;815;-71
2024/03/02 04:29:08;;;;;;;;;;;;;;;17.72;42.43;98199.25;10249662;28;1969;-71
2024/03/02 04:34:04;;;;;;;;;;;;;;;17.71;42.41;98200.22;10250006;28;823;-71
2024/03/02 04:39:00;;;;;;;;;;;;;;;17.70;42.44;98211.69;10249610;28;818;-71
2024/03/02 04:43:56;;;;;;;;;;;;;;;17.73;42.49;98215.91;10249061;28;808;-71
2024/03/02 04:48:55;;;;;;;;;;;;;;;17.73;42.48;98211.47;10248762;28;1894;-71
2024/03/02 04:53:51;;;;;;;;;;;;;;;17.73;42.49;98222.00;10248652;28;841;-71
2024/03/02 04:58:47;;;;;;;;;;;;;;;17.74;42.54;98212.34;10248485;28;917;-71
2024/03/02 05:03:43;;;;;;;;;;;;;;;17.75;42.54;98222.75;10248370;28;884;-71
2024/03/02 05:08:39;;;;;;;;;;;;;;;17.77;42.50;98221.81;10248090;28;1898;-71
2024/03/02 05:13:35;;;;;;;;;;;;;;;17.78;42.62;98216.44;10247970;28;916;-71
2024/03/02 05:18:30;;;;;;;;;;;;;;;17.79;42.60;98227.81;10248622;28;891;-71
2024/03/02 05:23:26;;;;;;;;;;;;;;;17.79;42.58;98233.97;10246921;28;868;-71
2024/03/02 05:28:22;;;;;;;;;;;;;;;17.80;42.75;98251.47;10246690;28;1914;-71
2024/03/02 05:33:19;;;;;;;;;;;;;;;17.82;42.48;98267.19;10247738;28;895;-72
2024/03/02 05:38:15;;;;;;;;;;;;;;;17.83;42.47;98261.81;10247516;28;818;-71
2024/03/02 05:43:11;;;;;;;;;;;;;;;17.84;42.60;98265.28;10247365;28;854;-71
2024/03/02 05:48:07;;;;;;;;;;;;;;;17.85;42.40;98267.81;10246589;28;1961;-71
2024/03/02 05:53:03;;;;;;;;;;;;;;;17.85;42.68;98266.97;10247321;28;795;-71
2024/03/02 05:58:31;;;;;;;;;;;;;;;17.86;42.39;98269.50;10246777;28;854;-71
2024/03/02 06:03:28;;;;;;;;;;;;;;;17.87;42.60;98273.00;10246025;28;815;-71
2024/03/02 06:08:23;;;;;;;;;;;;;;;17.87;42.47;98265.94;10245154;28;1955;-71
2024/03/02 06:13:19;;;;;;;;;;;;;;;17.87;42.46;98263.31;10245773;28;901;-75
2024/03/02 06:18:16;;;;;;;;;;;;;;;17.88;42.55;98267.63;10246226;28;807;-75
2024/03/02 06:23:11;;;;;;;;;;;;;;;17.90;42.45;98275.44;10245190;28;988;-74
2024/03/02 06:28:07;;;;;;;;;;;;;;;17.89;42.40;98273.72;10245616;28;1983;-74
2024/03/02 06:33:03;;;;;;;;;;;;;;;17.90;42.36;98275.44;10244930;28;782;-71
2024/03/02 06:37:59;;;;;;;;;;;;;;;17.91;42.45;98277.94;10244802;28;803;-71
2024/03/02 06:42:55;;;;;;;;;;;;;;;17.92;42.44;98289.31;10244545;28;885;-72
2024/03/02 06:47:51;;;;;;;;;;;;;;;17.92;42.45;98290.19;10245020;28;1960;-71
2024/03/02 06:52:47;;;;;;;;;;;;;;;17.94;42.51;98287.44;10244328;28;1008;-75
2024/03/02 06:57:43;;;;;;;;;;;;;;;17.94;42.50;98295.34;10244478;28;913;-71
2024/03/02 07:02:41;;;;;;;;;;;;;;;17.94;42.48;98284.81;10243905;28;779;-71
2024/03/02 07:07:37;;;;;;;;;;;;;;;17.93;42.59;98291.88;10243628;28;1906;-74
2024/03/02 07:12:33;;;;;;;;;;;;;;;17.92;42.38;98294.59;10244545;28;826;-75
2024/03/02 07:17:28;;;;;;;;;;;;;;;17.92;42.56;98297.22;10243820;28;897;-72
2024/03/02 07:22:24;;;;;;;;;;;;;;;17.91;42.48;98309.56;10243803;28;874;-75
2024/03/02 07:27:20;;;;;;;;;;;;;;;17.91;42.65;98306.09;10243553;28;1910;-72
2024/03/02 07:32:16;;;;;;;;;;;;;;;17.90;42.59;98317.59;10244106;28;894;-73
2024/03/02 07:37:12;;;;;;;;;;;;;;;17.88;42.52;98317.69;10243413;28;914;-74
2024/03/02 07:42:08;;;;;;;;;;;;;;;17.90;42.52;98328.16;10242825;28;921;-74
2024/03/02 07:47:04;;;;;;;;;;;;;;;17.87;42.75;98318.66;10243210;28;1894;-74
2024/03/02 07:51:59;;;;;;;;;;;;;;;17.87;42.61;98323.94;10243722;28;814;-74
2024/03/02 07:56:55;;;;;;;;;;;;;;;17.88;42.52;98324.75;10243764;28;815;-76
2024/03/02 08:01:51;;;;;;;;;;;;;;;17.90;42.42;98338.69;10243623;28;787;-77
2024/03/02 08:06:47;;;;;;;;;;;;;;;17.90;42.58;98343.97;10242663;28;1897;-74
2024/03/02 08:11:43;;;;;;;;;;;;;;;17.90;42.50;98338.69;10244439;28;977;-75
2024/03/02 08:16:39;;;;;;;;;;;;;;;17.89;42.45;98344.88;10250740;28;900;-74
2024/03/02 08:21:35;;;;;;;;;;;;;;;17.88;42.61;98338.78;10249799;28;790;-74
2024/03/02 08:26:31;;;;;;;;;;;;;;;17.89;42.65;98336.97;10250200;28;1967;-82
2024/03/02 08:31:27;;;;;;;;;;;;;;;17.89;42.63;98350.16;10250359;28;790;-74
2024/03/02 08:36:23;;;;;;;;;;;;;;;17.91;42.58;98356.19;10249939;28;883;-74
2024/03/02 08:41:19;;;;;;;;;;;;;;;17.91;42.63;98345.66;10250024;28;929;-79
2024/03/02 08:46:15;;;;;;;;;;;;;;;17.91;42.50;98350.91;10249676;28;1898;-74
2024/03/02 08:51:11;;;;;;;;;;;;;;;17.93;42.45;98343.75;10249181;28;854;-74
2024/03/02 08:56:06;;;;;;;;;;;;;;;17.94;42.40;98355.97;10248699;28;803;-75
2024/03/02 09:01:02;;;;;;;;;;;;;;;17.94;42.59;98367.38;10249013;28;868;-74
2024/03/02 09:05:58;;;;;;;;;;;;;;;17.94;42.43;98370.00;10248753;28;1898;-75
2024/03/02 09:10:54;;;;;;;;;;;;;;;17.95;42.58;98369.06;10249067;28;1146;-75
2024/03/02 09:15:50;;;;;;;;;;;;;;;17.95;42.38;98365.59;10249111;28;898;-76
2024/03/02 09:20:46;;;;;;;;;;;;;;;17.95;42.43;98353.25;10247599;28;965;-75
2024/03/02 09:25:42;;;;;;;;;;;;;;;17.96;42.39;98352.28;10245939;28;1967;-74
2024/03/02 09:30:37;;;;;;;;;;;;;;;17.96;42.54;98349.66;10247912;28;919;-75
2024/03/02 09:35:33;;;;;;;;;;;;;;;17.96;42.57;98348.81;10247090;28;806;-75
2024/03/02 09:40:29;;;;;;;;;;;;;;;17.98;42.50;98348.72;10246905;28;914;-75
2024/03/02 09:45:26;;;;;;;;;;;;;;;17.98;42.28;98331.13;10246713;28;1890;-74
2024/03/02 09:50:22;;;;;;;;;;;;;;;17.99;42.46;98339.88;10247165;28;842;-75
2024/03/02 09:55:18;;;;;;;;;;;;;;;17.98;42.46;98349.56;10247111;28;946;-75
2024/03/02 10:00:14;;;;;;;;;;;;;;;17.99;42.41;98350.41;10246281;28;973;-74
2024/03/02 10:05:11;;;;;;;;;;;;;;;17.99;42.52;98339.88;10246005;28;834;-76
2024/03/02 10:10:07;;;;;;;;;;;;;;;17.99;42.50;98343.34;10246147;28;1971;-85
2024/03/02 10:15:03;;;;;;;;;;;;;;;17.99;42.34;98348.63;10245561;28;780;-77
2024/03/02 10:19:59;;;;;;;;;;;;;;;18.00;42.48;98346.81;10245208;28;862;-74
2024/03/02 10:24:55;;;;;;;;;;;;;;;18.00;42.59;98345.06;10245849;28;876;-74
2024/03/02 10:29:51;;;;;;;;;;;;;;;18.00;42.50;98339.78;10245684;28;1910;-75
2024/03/02 10:34:49;;;;;;;;;;;;;;;18.02;42.27;98350.19;10244800;28;909;-74
2024/03/02 10:39:45;;;;;;;;;;;;;;;18.03;42.23;98334.28;10244778;28;930;-76
2024/03/02 10:44:41;;;;;;;;;;;;;;;18.04;42.31;98343.88;10244629;28;811;-76
2024/03/02 10:49:37;;;;;;;;;;;;;;;18.04;42.32;98338.59;10244684;28;1953;-75
2024/03/02 10:54:36;;;;;;;;;;;;;;;18.04;41.97;98335.13;10244175;28;1119;-74
2024/03/02 10:59:32;;;;;;;;;;;;;;;18.03;42.39;98329.03;10244016;28;1694;-74
2024/03/02 11:04:28;;;;;;;;;;;;;;;18.05;42.42;98335.03;10244098;28;938;-74
2024/03/02 11:09:24;;;;;;;;;;;;;;;18.07;42.28;98329.66;10243307;28;1894;-74
2024/03/02 11:14:20;;;;;;;;;;;;;;;18.06;42.43;98336.72;10244505;28;838;-74
2024/03/02 11:19:15;;;;;;;;;;;;;;;18.07;42.19;98319.94;10243819;28;879;-75
2024/03/02 11:24:11;;;;;;;;;;;;;;;18.07;42.14;98324.38;10244424;28;867;-75
2024/03/02 11:29:07;;;;;;;;;;;;;;;18.07;42.26;98312.03;10243828;28;1914;-74
2024/03/02 11:34:03;;;;;;;;;;;;;;;18.08;42.20;98311.09;10243798;28;781;-76
2024/03/02 11:38:59;;;;;;;;;;;;;;;18.08;42.29;98313.75;10242870;28;870;-76
2024/03/02 11:43:55;;;;;;;;;;;;;;;18.09;42.28;98323.31;10244195;28;811;-73
2024/03/02 11:48:52;;;;;;;;;;;;;;;18.11;42.25;98320.59;10248639;28;1913;-76
2024/03/02 11:53:48;;;;;;;;;;;;;;;18.10;42.31;98314.50;10251719;28;877;-76
2024/03/02 11:58:44;;;;;;;;;;;;;;;18.11;42.46;98304.78;10250221;28;1093;-76
2024/03/02 12:03:40;;;;;;;;;;;;;;;18.12;42.21;98293.28;10250728;28;759;-76
2024/03/02 12:08:36;;;;;;;;;;;;;;;18.12;42.20;98291.47;10250678;28;1964;-76
2024/03/02 12:13:33;;;;;;;;;;;;;;;18.13;42.25;98293.19;10250895;28;952;-76
2024/03/02 12:18:29;;;;;;;;;;;;;;;18.14;42.23;98294.00;10250170;28;874;-76
2024/03/02 12:23:25;;;;;;;;;;;;;;;18.14;42.31;98294.84;10250538;28;958;-76
2024/03/02 12:28:21;;;;;;;;;;;;;;;18.16;42.25;98279.78;10249606;28;1978;-76
2024/03/02 12:33:16;;;;;;;;;;;;;;;18.18;42.27;98285.81;10250128;28;834;-77
2024/03/02 12:38:13;;;;;;;;;;;;;;;18.20;42.10;98287.47;10249502;28;894;-76
2024/03/02 12:43:09;;;;;;;;;;;;;;;18.22;42.41;98280.31;10249259;28;922;-76
2024/03/02 12:48:05;;;;;;;;;;;;;;;18.23;42.02;98287.25;10248923;28;1961;-76
2024/03/02 12:53:01;;;;;;;;;;;;;;;18.20;42.20;98279.56;10249415;28;767;-76
2024/03/02 12:57:58;;;;;;;;;;;;;;;18.25;42.03;98280.09;10247362;28;831;-76
2024/03/02 13:03:01;;;;;;;;;;;;;;;18.30;42.15;98278.00;10248381;28;874;-76
2024/03/02 13:07:57;;;;;;;;;;;;;;;18.34;42.07;98282.13;10248462;28;1898;-73
2024/03/02 13:12:52;;;;;;;;;;;;;;;18.29;42.21;98274.50;10248006;28;775;-72
2024/03/02 13:17:49;;;;;;;;;;;;;;;18.26;42.30;98274.72;10247835;28;895;-73
2024/03/02 13:22:45;;;;;;;;;;;;;;;18.26;42.37;98279.13;10248227;28;988;-73
2024/03/02 13:27:41;;;;;;;;;;;;;;;18.27;42.23;98280.84;10248021;28;1977;-69
2024/03/02 13:32:37;;;;;;;;;;;;;;;18.30;42.24;98281.47;10247772;28;857;-70
2024/03/02 13:37:33;;;;;;;;;;;;;;;18.32;42.43;98276.09;10247149;28;868;-70
2024/03/02 13:42:28;;;;;;;;;;;;;;;18.34;42.62;98274.19;10247449;28;814;-69
2024/03/02 13:47:24;;;;;;;;;;;;;;;18.36;42.62;98267.00;10246431;28;1955;-71
2024/03/02 13:52:20;;;;;;;;;;;;;;;18.39;42.55;98267.66;10246801;28;855;-70
2024/03/02 13:57:19;;;;;;;;;;;;;;;18.39;42.49;98257.09;10246684;28;869;-69
2024/03/02 14:02:15;;;;;;;;;;;;;;;18.40;42.59;98266.69;10246371;28;925;-70
2024/03/02 14:07:11;;;;;;;;;;;;;;;18.43;42.52;98262.16;10245924;28;1965;-72
2024/03/02 14:12:07;;;;;;;;;;;;;;;18.43;42.56;98263.00;10245057;28;981;-72
2024/03/02 14:17:05;;;;;;;;;;;;;;;18.44;42.65;98261.19;10245271;28;842;-71
2024/03/02 14:22:01;;;;;;;;;;;;;;;18.45;42.56;98261.09;10245822;28;960;-72
2024/03/02 14:26:59;;;;;;;;;;;;;;;18.46;42.66;98254.88;10246094;28;1973;-72
2024/03/02 14:31:55;;;;;;;;;;;;;;;18.47;42.69;98253.06;10245413;28;966;-72
2024/03/02 14:36:51;;;;;;;;;;;;;;;18.50;42.63;98245.81;10245396;28;811;-72
2024/03/02 14:41:47;;;;;;;;;;;;;;;18.52;42.56;98235.13;10244976;28;871;-72
2024/03/02 14:46:43;;;;;;;;;;;;;;;18.57;42.56;98233.84;10243997;28;1955;-72
2024/03/02 14:51:39;;;;;;;;;;;;;;;18.59;42.52;98229.31;10244833;28;826;-71
2024/03/02 14:56:34;;;;;;;;;;;;;;;18.61;42.29;98224.78;10244107;28;949;-72
2024/03/02 15:01:30;;;;;;;;;;;;;;;18.61;42.39;98218.66;10244522;28;859;-72
2024/03/02 15:06:26;;;;;;;;;;;;;;;18.66;42.35;98211.25;10243801;28;1957;-72
2024/03/02 15:11:22;;;;;;;;;;;;;;;18.65;42.26;98211.34;10243806;28;830;-72
2024/03/02 15:16:18;;;;;;;;;;;;;;;18.71;42.20;98209.13;10243542;28;865;-72
2024/03/02 15:21:14;;;;;;;;;;;;;;;18.65;42.30;98193.72;10245233;28;763;-72
2024/03/02 15:26:10;;;;;;;;;;;;;;;18.62;42.36;98207.97;10252905;28;1976;-71
2024/03/02 15:31:06;;;;;;;;;;;;;;;18.61;42.37;98206.28;10252997;28;924;-72
2024/03/02 15:36:02;;;;;;;;;;;;;;;18.59;42.41;98199.44;10251975;28;863;-72
2024/03/02 15:40:58;;;;;;;;;;;;;;;18.59;42.62;98205.56;10252479;28;842;-71
2024/03/02 15:45:54;;;;;;;;;;;;;;;18.59;42.51;98207.34;10251104;28;1898;-71
2024/03/02 15:50:52;;;;;;;;;;;;;;;18.59;42.45;98204.72;10250984;28;926;-72
2024/03/02 15:55:48;;;;;;;;;;;;;;;18.59;42.47;98212.63;10250754;28;893;-72
2024/03/02 16:00:44;;;;;;;;;;;;;;;18.59;42.40;98210.00;10250525;28;827;-71
2024/03/02 16:05:40;;;;;;;;;;;;;;;18.59;42.58;98210.84;10250782;28;1955;-72
2024/03/02 16:10:36;;;;;;;;;;;;;;;18.61;42.47;98213.38;10251286;28;1375;-69
2024/03/02 16:15:32;;;;;;;;;;;;;;;18.64;42.33;98212.31;10250039;28;787;-69
2024/03/02 16:20:28;;;;;;;;;;;;;;;18.61;42.45;98203.66;10249771;28;839;-69
2024/03/02 16:25:24;;;;;;;;;;;;;;;18.61;42.46;98203.66;10249792;28;882;-69
2024/03/02 16:30:20;;;;;;;;;;;;;;;18.62;42.59;98199.22;10249530;28;1914;-69
2024/03/02 16:35:16;;;;;;;;;;;;;;;18.62;42.48;98207.13;10249629;28;855;-69
2024/03/02 16:40:13;;;;;;;;;;;;;;;18.61;42.52;98211.56;10249706;28;1063;-72
2024/03/02 16:45:09;;;;;;;;;;;;;;;18.62;42.60;98207.97;10249120;28;787;-72
2024/03/02 16:50:08;;;;;;;;;;;;;;;18.62;42.67;98205.34;10248694;28;1894;-72
2024/03/02 16:55:04;;;;;;;;;;;;;;;18.61;42.40;98214.22;10230836;28;1732;-70
2024/03/02 17:00:00;;;;;;;;;;;;;;;18.61;42.48;98219.50;10248349;28;953;-70
2024/03/02 17:04:56;;;;;;;;;;;;;;;18.62;42.55;98229.09;10248839;28;826;-73
2024/03/02 17:09:53;;;;;;;;;;;;;;;18.62;42.79;98226.44;10248086;28;1891;-70
2024/03/02 17:14:49;;;;;;;;;;;;;;;18.61;42.65;98235.31;10247833;28;906;-70
2024/03/02 17:19:44;;;;;;;;;;;;;;;18.62;42.70;98233.53;10248227;28;922;-71
2024/03/02 17:24:40;;;;;;;;;;;;;;;18.63;42.84;98222.03;10246895;28;972;-71
2024/03/02 17:29:36;;;;;;;;;;;;;;;18.62;42.70;98231.72;10229551;28;1915;-70
2024/03/02 17:34:32;;;;;;;;;;;;;;;18.62;42.70;98231.72;10247164;28;957;-70
2024/03/02 17:39:28;;;;;;;;;;;;;;;18.62;42.77;98229.09;10247373;28;970;-71
2024/03/02 17:44:24;;;;;;;;;;;;;;;18.65;42.86;98229.81;10246669;28;981;-71
2024/03/02 17:49:20;;;;;;;;;;;;;;;18.64;42.94;98236.91;10247034;28;1969;-69
2024/03/02 17:54:15;;;;;;;;;;;;;;;18.64;42.84;98239.53;10246865;28;823;-72
2024/03/02 17:59:11;;;;;;;;;;;;;;;18.65;42.86;98254.41;10246100;28;777;-73
2024/03/02 18:04:07;;;;;;;;;;;;;;;18.66;42.92;98260.56;10246540;28;1017;-74
2024/03/02 18:09:03;;;;;;;;;;;;;;;18.66;42.95;98255.28;10245615;28;1961;-73
2024/03/02 18:13:59;;;;;;;;;;;;;;;18.66;43.04;98258.75;10245524;28;831;-73
2024/03/02 18:18:55;;;;;;;;;;;;;;;18.68;42.87;98256.84;10227726;28;792;-70
2024/03/02 18:23:51;;;;;;;;;;;;;;;18.67;42.91;98252.50;10245158;28;871;-70
2024/03/02 18:28:47;;;;;;;;;;;;;;;18.69;42.76;98255.06;10245652;28;1977;-70
2024/03/02 18:33:42;;;;;;;;;;;;;;;18.69;42.95;98257.69;10244203;28;905;-70
2024/03/02 18:38:38;;;;;;;;;;;;;;;18.70;42.92;98259.38;10244873;28;898;-72
2024/03/02 18:43:34;;;;;;;;;;;;;;;18.70;42.73;98254.09;10245134;28;803;-72
2024/03/02 18:48:30;;;;;;;;;;;;;;;18.69;42.75;98253.25;10244675;28;1964;-72
2024/03/02 18:53:26;;;;;;;;;;;;;;;18.69;42.76;98242.69;10245539;28;780;-72
2024/03/02 18:58:22;;;;;;;;;;;;;;;18.70;42.76;98244.38;10243939;28;961;-72
2024/03/02 19:03:18;;;;;;;;;;;;;;;18.71;42.77;98248.72;10226224;28;727;-70
2024/03/02 19:08:18;;;;;;;;;;;;;;;18.71;42.86;98243.44;10243320;28;1964;-70
2024/03/02 19:13:14;;;;;;;;;;;;;;;18.72;42.82;98236.38;10243716;28;901;-70
2024/03/02 19:18:09;;;;;;;;;;;;;;;18.73;42.68;98243.31;10243647;28;909;-70
2024/03/02 19:23:06;;;;;;;;;;;;;;;18.72;42.62;98241.63;10243587;28;759;-70
2024/03/02 19:28:02;;;;;;;;;;;;;;;18.73;42.81;98241.53;10243368;28;1970;-70
2024/03/02 19:32:58;;;;;;;;;;;;;;;18.74;42.71;98235.31;10243456;28;783;-70
2024/03/02 19:37:55;;;;;;;;;;;;;;;18.75;42.81;98238.81;10243238;28;877;-70
2024/03/02 19:42:51;;;;;;;;;;;;;;;18.74;42.77;98229.19;10243798;28;849;-70
2024/03/02 19:47:47;;;;;;;;;;;;;;;18.75;42.74;98230.91;10243618;28;1961;-71
2024/03/02 19:52:43;;;;;;;;;;;;;;;18.76;42.66;98237.88;10243591;28;831;-72
2024/03/02 19:57:44;;;;;;;;;;;;;;;18.76;42.78;98232.59;10244128;28;849;-73
2024/03/02 20:02:40;;;;;;;;;;;;;;;18.77;42.70;98221.06;10243216;28;921;-72
2024/03/02 20:07:36;;;;;;;;;;;;;;;18.77;42.66;98219.28;10244854;28;1898;-72
2024/03/02 20:12:32;;;;;;;;;;;;;;;18.78;42.76;98223.59;10250216;28;815;-73
2024/03/02 20:17:28;;;;;;;;;;;;;;;18.78;42.76;98220.09;10250612;28;885;-73
2024/03/02 20:22:24;;;;;;;;;;;;;;;18.79;42.78;98211.25;10250469;28;958;-73
2024/03/02 20:27:21;;;;;;;;;;;;;;;18.80;42.90;98218.22;10249850;28;1910;-72
2024/03/02 20:32:19;;;;;;;;;;;;;;;18.81;42.67;98209.31;10249470;28;803;-73
2024/03/02 20:37:15;;;;;;;;;;;;;;;18.80;42.84;98202.38;10249797;28;898;-72
2024/03/02 20:42:11;;;;;;;;;;;;;;;18.80;42.72;98202.38;10249053;28;1082;-72
2024/03/02 20:47:07;;;;;;;;;;;;;;;18.79;42.86;98205.97;10248830;28;1967;-73
2024/03/02 20:52:03;;;;;;;;;;;;;;;18.79;42.83;98195.41;10248684;28;910;-73
2024/03/02 20:56:59;;;;;;;;;;;;;;;18.77;42.93;98198.16;10248545;28;838;-72
2024/03/02 21:01:54;;;;;;;;;;;;;;;18.77;42.51;98192.03;10248938;28;783;-72
2024/03/02 21:06:50;;;;;;;;;;;;;;;18.78;42.85;98193.72;10248010;28;1918;-73
2024/03/02 21:11:48;;;;;;;;;;;;;;;18.78;42.96;98193.72;10247791;28;957;-73
2024/03/02 21:16:44;;;;;;;;;;;;;;;18.76;42.68;98187.72;10247779;28;918;-73
2024/03/02 21:21:39;;;;;;;;;;;;;;;18.76;42.84;98182.44;10245897;28;1078;-72
2024/03/02 21:26:35;;;;;;;;;;;;;;;18.76;42.56;98182.44;10247391;28;1918;-72
2024/03/02 21:31:31;;;;;;;;;;;;;;;18.75;42.74;98184.22;10247246;28;906;-73
2024/03/02 21:36:27;;;;;;;;;;;;;;;18.75;42.87;98183.38;10247076;28;811;-73
2024/03/02 21:41:24;;;;;;;;;;;;;;;18.74;42.71;98171.97;10247460;28;873;-72
2024/03/02 21:46:20;;;;;;;;;;;;;;;18.73;42.80;98179.97;10246603;28;1906;-77
2024/03/02 21:51:16;;;;;;;;;;;;;;;18.72;42.82;98176.50;10246712;28;963;-72
2024/03/02 21:56:12;;;;;;;;;;;;;;;18.72;42.74;98187.06;10247141;28;926;-72
2024/03/02 22:01:07;;;;;;;;;;;;;;;18.71;42.92;98184.53;10246348;28;807;-72
2024/03/02 22:06:03;;;;;;;;;;;;;;;18.69;42.76;98184.63;10246646;28;1906;-72
2024/03/02 22:11:00;;;;;;;;;;;;;;;18.69;42.74;98183.81;10245169;28;1461;-70
2024/03/02 22:15:56;;;;;;;;;;;;;;;18.67;42.94;98181.25;10245812;28;923;-70
2024/03/02 22:20:51;;;;;;;;;;;;;;;18.66;42.91;98178.75;10245582;28;933;-70
2024/03/02 22:25:48;;;;;;;;;;;;;;;18.64;42.88;98170.09;10244953;28;1020;-72
2024/03/02 22:30:44;;;;;;;;;;;;;;;18.62;42.88;98173.66;10245000;28;1902;-70
2024/03/02 22:35:40;;;;;;;;;;;;;;;18.60;42.92;98161.53;10245051;28;900;-70
2024/03/02 22:40:36;;;;;;;;;;;;;;;18.59;43.02;98167.78;10244845;28;830;-70
2024/03/02 22:45:32;;;;;;;;;;;;;;;18.56;42.89;98160.91;10244654;28;918;-70
2024/03/02 22:50:28;;;;;;;;;;;;;;;18.54;42.70;98154.91;10244446;28;1878;-70
2024/03/02 22:55:24;;;;;;;;;;;;;;;18.51;42.98;98155.13;10245073;28;827;-70
2024/03/02 23:00:31;;;;;;;;;;;;;;;18.49;42.88;98149.13;10244330;28;772;-70
2024/03/02 23:05:26;;;;;;;;;;;;;;;18.48;42.85;98146.59;10244999;28;822;-70
2024/03/02 23:10:22;;;;;;;;;;;;;;;18.45;43.01;98147.66;10243256;28;1886;-70
2024/03/02 23:15:18;;;;;;;;;;;;;;;18.44;42.97;98139.84;10244279;28;839;-70
2024/03/02 23:20:14;;;;;;;;;;;;;;;18.40;42.90;98147.97;10244449;28;803;-70
2024/03/02 23:25:10;;;;;;;;;;;;;;;18.40;42.86;98155.06;10243263;28;946;-70
2024/03/02 23:30:06;;;;;;;;;;;;;;;18.38;42.91;98156.97;10244284;28;1914;-70
2024/03/02 23:35:02;;;;;;;;;;;;;;;18.35;43.08;98171.22;10243624;28;961;-70
2024/03/02 23:44:56;;;;;;;;;;;;;;;18.31;42.88;98175.03;10248848;28;781;-69
2024/03/02 23:49:52;;;;;;;;;;;;;;;18.31;42.96;98176.78;10251301;28;1863;-70
2024/03/02 23:54:48;;;;;;;;;;;;;;;18.29;42.90;98171.66;10251797;28;881;-70
2024/03/02 23:59:44;;;;;;;;;;;;;;;18.27;43.13;98178.81;10251548;28;842;-70
